sensor_id;sensor_type;location;lat;lon;timestamp;temperature;humidity
37868;DHT22;24011;48.880;9.190;2022-08-19T00:01:28;25.40;51.90
37868;DHT22;24011;48.880;9.190;2022-08-19T00:04:58;25.40;51.90
37868;DHT22;24011;48.880;9.190;2022-08-19T00:08:27;25.40;51.80
37868;DHT22;24011;48.880;9.190;2022-08-19T00:11:16;25.40;51.80
37868;DHT22;24011;48.880;9.190;2022-08-19T00:14:10;25.40;51.80
37868;DHT22;24011;48.880;9.190;2022-08-19T00:17:09;25.40;51.90
37868;DHT22;24011;48.880;9.190;2022-08-19T00:20:22;25.40;51.90
37868;DHT22;24011;48.880;9.190;2022-08-19T00:23:15;25.40;51.90
37868;DHT22;24011;48.880;9.190;2022-08-19T00:26:22;25.40;51.80
37868;DHT22;24011;48.880;9.190;2022-08-19T00:29:22;25.40;51.90
37868;DHT22;24011;48.880;9.190;2022-08-19T00:32:18;25.40;51.90
37868;DHT22;24011;48.880;9.190;2022-08-19T00:35:15;25.40;51.90
37868;DHT22;24011;48.880;9.190;2022-08-19T00:38:16;25.40;51.90
37868;DHT22;24011;48.880;9.190;2022-08-19T00:41:16;25.30;51.80
37868;DHT22;24011;48.880;9.190;2022-08-19T00:44:23;25.30;51.80
37868;DHT22;24011;48.880;9.190;2022-08-19T00:47:18;25.40;51.90
37868;DHT22;24011;48.880;9.190;2022-08-19T00:50:16;25.40;51.90
37868;DHT22;24011;48.880;9.190;2022-08-19T00:53:26;25.40;51.90
37868;DHT22;24011;48.880;9.190;2022-08-19T00:56:30;25.30;51.80
37868;DHT22;24011;48.880;9.190;2022-08-19T00:59:40;25.30;51.80
37868;DHT22;24011;48.880;9.190;2022-08-19T01:02:48;25.30;51.80
37868;DHT22;24011;48.880;9.190;2022-08-19T01:05:46;25.30;51.80
37868;DHT22;24011;48.880;9.190;2022-08-19T01:08:40;25.30;51.80
37868;DHT22;24011;48.880;9.190;2022-08-19T01:11:42;25.30;51.80
37868;DHT22;24011;48.880;9.190;2022-08-19T01:14:46;25.30;51.90
37868;DHT22;24011;48.880;9.190;2022-08-19T01:17:46;25.30;51.90
37868;DHT22;24011;48.880;9.190;2022-08-19T01:20:49;25.30;51.80
37868;DHT22;24011;48.880;9.190;2022-08-19T01:23:58;25.30;51.80
37868;DHT22;24011;48.880;9.190;2022-08-19T01:26:54;25.30;51.80
37868;DHT22;24011;48.880;9.190;2022-08-19T01:29:52;25.30;51.80
37868;DHT22;24011;48.880;9.190;2022-08-19T01:32:55;25.30;51.80
37868;DHT22;24011;48.880;9.190;2022-08-19T01:36:04;25.30;51.90
37868;DHT22;24011;48.880;9.190;2022-08-19T01:39:07;25.30;51.80
37868;DHT22;24011;48.880;9.190;2022-08-19T01:42:13;25.30;51.80
37868;DHT22;24011;48.880;9.190;2022-08-19T01:45:16;25.30;51.80
37868;DHT22;24011;48.880;9.190;2022-08-19T01:48:28;25.30;51.80
37868;DHT22;24011;48.880;9.190;2022-08-19T01:51:37;25.30;51.80
37868;DHT22;24011;48.880;9.190;2022-08-19T02:09:37;25.20;51.90
37868;DHT22;24011;48.880;9.190;2022-08-19T02:12:55;25.30;51.90
37868;DHT22;24011;48.880;9.190;2022-08-19T02:16:25;25.20;51.80
37868;DHT22;24011;48.880;9.190;2022-08-19T02:19:49;25.30;51.80
37868;DHT22;24011;48.880;9.190;2022-08-19T02:23:01;25.20;51.80
37868;DHT22;24011;48.880;9.190;2022-08-19T02:26:03;25.30;51.80
37868;DHT22;24011;48.880;9.190;2022-08-19T02:29:04;25.20;51.80
37868;DHT22;24011;48.880;9.190;2022-08-19T02:31:58;25.30;51.80
37868;DHT22;24011;48.880;9.190;2022-08-19T02:34:58;25.30;51.90
37868;DHT22;24011;48.880;9.190;2022-08-19T02:37:58;25.30;51.90
37868;DHT22;24011;48.880;9.190;2022-08-19T02:41:29;25.20;51.80
37868;DHT22;24011;48.880;9.190;2022-08-19T02:44:22;25.20;51.90
37868;DHT22;24011;48.880;9.190;2022-08-19T02:47:31;25.20;51.90
37868;DHT22;24011;48.880;9.190;2022-08-19T02:50:28;25.20;51.90
37868;DHT22;24011;48.880;9.190;2022-08-19T02:53:34;25.20;51.90
37868;DHT22;24011;48.880;9.190;2022-08-19T02:56:40;25.20;51.90
37868;DHT22;24011;48.880;9.190;2022-08-19T02:59:37;25.20;51.90
37868;DHT22;24011;48.880;9.190;2022-08-19T03:02:38;25.20;51.90
37868;DHT22;24011;48.880;9.190;2022-08-19T03:05:34;25.20;51.90
37868;DHT22;24011;48.880;9.190;2022-08-19T03:08:37;25.20;51.90
37868;DHT22;24011;48.880;9.190;2022-08-19T03:11:50;25.10;52.20
37868;DHT22;24011;48.880;9.190;2022-08-19T03:14:43;25.10;52.40
37868;DHT22;24011;48.880;9.190;2022-08-19T03:17:46;25.00;52.70
37868;DHT22;24011;48.880;9.190;2022-08-19T03:20:44;25.00;53.00
37868;DHT22;24011;48.880;9.190;2022-08-19T03:23:34;24.90;53.20
37868;DHT22;24011;48.880;9.190;2022-08-19T03:26:22;24.90;53.30
37868;DHT22;24011;48.880;9.190;2022-08-19T03:29:17;24.90;53.40
37868;DHT22;24011;48.880;9.190;2022-08-19T03:32:16;24.80;53.50
37868;DHT22;24011;48.880;9.190;2022-08-19T03:35:08;24.80;53.60
37868;DHT22;24011;48.880;9.190;2022-08-19T03:37:52;24.80;54.40
37868;DHT22;24011;48.880;9.190;2022-08-19T03:40:40;24.70;54.40
37868;DHT22;24011;48.880;9.190;2022-08-19T03:43:41;24.70;53.90
37868;DHT22;24011;48.880;9.190;2022-08-19T03:46:47;24.70;54.00
37868;DHT22;24011;48.880;9.190;2022-08-19T03:49:35;24.70;54.10
37868;DHT22;24011;48.880;9.190;2022-08-19T03:52:34;24.60;54.10
37868;DHT22;24011;48.880;9.190;2022-08-19T03:55:20;24.60;54.10
37868;DHT22;24011;48.880;9.190;2022-08-19T03:58:11;24.60;54.20
37868;DHT22;24011;48.880;9.190;2022-08-19T04:00:58;24.60;54.30
37868;DHT22;24011;48.880;9.190;2022-08-19T04:03:56;24.50;54.30
37868;DHT22;24011;48.880;9.190;2022-08-19T04:06:41;24.40;54.40
37868;DHT22;24011;48.880;9.190;2022-08-19T04:09:34;24.50;54.50
37868;DHT22;24011;48.880;9.190;2022-08-19T04:12:41;24.40;54.50
37868;DHT22;24011;48.880;9.190;2022-08-19T04:15:47;24.50;54.60
37868;DHT22;24011;48.880;9.190;2022-08-19T04:18:44;24.40;54.70
37868;DHT22;24011;48.880;9.190;2022-08-19T04:21:49;24.40;54.70
37868;DHT22;24011;48.880;9.190;2022-08-19T04:24:59;24.40;54.70
37868;DHT22;24011;48.880;9.190;2022-08-19T04:28:05;24.30;54.70
37868;DHT22;24011;48.880;9.190;2022-08-19T04:31:04;24.30;54.90
37868;DHT22;24011;48.880;9.190;2022-08-19T04:34:23;24.30;54.90
37868;DHT22;24011;48.880;9.190;2022-08-19T04:37:47;24.30;55.60
37868;DHT22;24011;48.880;9.190;2022-08-19T04:40:58;24.20;54.90
37868;DHT22;24011;48.880;9.190;2022-08-19T04:44:23;24.20;55.00
37868;DHT22;24011;48.880;9.190;2022-08-19T04:47:23;24.20;55.00
37868;DHT22;24011;48.880;9.190;2022-08-19T04:50:31;24.20;55.00
37868;DHT22;24011;48.880;9.190;2022-08-19T04:53:41;24.20;55.10
37868;DHT22;24011;48.880;9.190;2022-08-19T04:56:47;24.10;55.10
37868;DHT22;24011;48.880;9.190;2022-08-19T04:59:41;24.20;55.10
37868;DHT22;24011;48.880;9.190;2022-08-19T05:02:35;24.20;55.10
37868;DHT22;24011;48.880;9.190;2022-08-19T05:05:23;24.10;55.10
37868;DHT22;24011;48.880;9.190;2022-08-19T05:08:35;24.10;55.10
37868;DHT22;24011;48.880;9.190;2022-08-19T05:12:05;24.10;55.20
37868;DHT22;24011;48.880;9.190;2022-08-19T05:14:47;24.10;55.20
37868;DHT22;24011;48.880;9.190;2022-08-19T05:17:47;24.10;55.30
37868;DHT22;24011;48.880;9.190;2022-08-19T05:20:47;24.10;55.30
37868;DHT22;24011;48.880;9.190;2022-08-19T05:23:59;24.10;55.30
37868;DHT22;24011;48.880;9.190;2022-08-19T05:27:05;24.10;55.40
37868;DHT22;24011;48.880;9.190;2022-08-19T05:30:21;24.10;55.40
37868;DHT22;24011;48.880;9.190;2022-08-19T05:33:29;24.00;55.40
37868;DHT22;24011;48.880;9.190;2022-08-19T05:37:05;24.00;55.40
37868;DHT22;24011;48.880;9.190;2022-08-19T05:40:12;24.00;55.50
37868;DHT22;24011;48.880;9.190;2022-08-19T05:43:12;24.00;55.50
37868;DHT22;24011;48.880;9.190;2022-08-19T05:45:54;24.00;55.50
37868;DHT22;24011;48.880;9.190;2022-08-19T05:48:59;24.00;55.50
37868;DHT22;24011;48.880;9.190;2022-08-19T05:52:06;23.90;55.60
37868;DHT22;24011;48.880;9.190;2022-08-19T05:55:12;23.90;55.70
37868;DHT22;24011;48.880;9.190;2022-08-19T05:58:23;23.90;55.80
37868;DHT22;24011;48.880;9.190;2022-08-19T06:01:24;23.90;55.90
37868;DHT22;24011;48.880;9.190;2022-08-19T06:04:24;23.90;55.90
37868;DHT22;24011;48.880;9.190;2022-08-19T06:07:42;23.90;55.80
37868;DHT22;24011;48.880;9.190;2022-08-19T06:10:54;23.90;55.70
37868;DHT22;24011;48.880;9.190;2022-08-19T06:13:55;23.90;55.70
37868;DHT22;24011;48.880;9.190;2022-08-19T06:16:48;23.90;55.80
37868;DHT22;24011;48.880;9.190;2022-08-19T06:19:47;23.80;56.40
37868;DHT22;24011;48.880;9.190;2022-08-19T06:22:48;23.80;55.80
37868;DHT22;24011;48.880;9.190;2022-08-19T06:25:47;23.80;55.80
37868;DHT22;24011;48.880;9.190;2022-08-19T06:28:48;23.80;55.80
37868;DHT22;24011;48.880;9.190;2022-08-19T06:32:18;23.80;55.90
37868;DHT22;24011;48.880;9.190;2022-08-19T06:35:18;23.80;55.90
37868;DHT22;24011;48.880;9.190;2022-08-19T06:38:12;23.80;56.00
37868;DHT22;24011;48.880;9.190;2022-08-19T06:41:05;23.80;55.90
37868;DHT22;24011;48.880;9.190;2022-08-19T06:43:48;23.80;55.90
37868;DHT22;24011;48.880;9.190;2022-08-19T06:46:48;23.80;56.00
37868;DHT22;24011;48.880;9.190;2022-08-19T06:50:08;23.80;56.00
37868;DHT22;24011;48.880;9.190;2022-08-19T06:53:03;23.80;56.10
37868;DHT22;24011;48.880;9.190;2022-08-19T06:55:54;23.80;56.20
37868;DHT22;24011;48.880;9.190;2022-08-19T06:58:36;23.80;56.30
37868;DHT22;24011;48.880;9.190;2022-08-19T07:01:50;23.80;56.30
37868;DHT22;24011;48.880;9.190;2022-08-19T07:05:00;23.80;56.30
37868;DHT22;24011;48.880;9.190;2022-08-19T07:08:00;23.80;56.40
37868;DHT22;24011;48.880;9.190;2022-08-19T07:10:54;23.80;56.40
37868;DHT22;24011;48.880;9.190;2022-08-19T07:13:48;23.80;56.40
37868;DHT22;24011;48.880;9.190;2022-08-19T07:17:01;23.80;56.60
37868;DHT22;24011;48.880;9.190;2022-08-19T07:23:59;23.80;56.70
37868;DHT22;24011;48.880;9.190;2022-08-19T07:26:53;23.80;56.80
37868;DHT22;24011;48.880;9.190;2022-08-19T07:29:49;23.80;56.90
37868;DHT22;24011;48.880;9.190;2022-08-19T07:32:42;23.80;56.90
37868;DHT22;24011;48.880;9.190;2022-08-19T07:35:34;23.80;56.90
37868;DHT22;24011;48.880;9.190;2022-08-19T07:38:24;23.80;56.90
37868;DHT22;24011;48.880;9.190;2022-08-19T07:41:24;23.80;57.00
37868;DHT22;24011;48.880;9.190;2022-08-19T07:44:11;23.80;57.00
37868;DHT22;24011;48.880;9.190;2022-08-19T07:47:09;23.70;56.90
37868;DHT22;24011;48.880;9.190;2022-08-19T07:50:17;23.70;56.90
37868;DHT22;24011;48.880;9.190;2022-08-19T07:53:17;23.80;57.00
37868;DHT22;24011;48.880;9.190;2022-08-19T07:56:12;23.70;57.00
37868;DHT22;24011;48.880;9.190;2022-08-19T07:59:11;23.70;56.90
37868;DHT22;24011;48.880;9.190;2022-08-19T08:02:06;23.70;56.90
37868;DHT22;24011;48.880;9.190;2022-08-19T08:05:00;23.70;57.00
37868;DHT22;24011;48.880;9.190;2022-08-19T08:08:00;23.70;57.00
37868;DHT22;24011;48.880;9.190;2022-08-19T08:11:06;23.80;57.20
37868;DHT22;24011;48.880;9.190;2022-08-19T08:14:01;23.70;57.20
37868;DHT22;24011;48.880;9.190;2022-08-19T08:20:43;23.70;57.30
37868;DHT22;24011;48.880;9.190;2022-08-19T08:23:37;23.70;57.30
37868;DHT22;24011;48.880;9.190;2022-08-19T08:26:58;23.70;57.40
37868;DHT22;24011;48.880;9.190;2022-08-19T08:30:07;23.70;57.40
37868;DHT22;24011;48.880;9.190;2022-08-19T08:33:12;23.70;57.50
37868;DHT22;24011;48.880;9.190;2022-08-19T08:35:54;23.70;57.50
37868;DHT22;24011;48.880;9.190;2022-08-19T08:39:06;23.70;57.50
37868;DHT22;24011;48.880;9.190;2022-08-19T08:42:07;23.70;57.60
37868;DHT22;24011;48.880;9.190;2022-08-19T08:45:10;23.70;57.70
37868;DHT22;24011;48.880;9.190;2022-08-19T08:48:20;23.70;57.70
37868;DHT22;24011;48.880;9.190;2022-08-19T08:51:32;23.70;57.70
37868;DHT22;24011;48.880;9.190;2022-08-19T08:54:44;23.70;57.80
37868;DHT22;24011;48.880;9.190;2022-08-19T08:57:44;23.70;57.80
37868;DHT22;24011;48.880;9.190;2022-08-19T09:00:49;23.70;57.80
37868;DHT22;24011;48.880;9.190;2022-08-19T09:03:43;23.70;57.90
37868;DHT22;24011;48.880;9.190;2022-08-19T09:06:58;23.70;57.90
37868;DHT22;24011;48.880;9.190;2022-08-19T09:10:20;23.70;57.90
37868;DHT22;24011;48.880;9.190;2022-08-19T09:13:26;23.70;58.00
37868;DHT22;24011;48.880;9.190;2022-08-19T09:16:31;23.70;58.00
37868;DHT22;24011;48.880;9.190;2022-08-19T09:19:34;23.70;58.10
37868;DHT22;24011;48.880;9.190;2022-08-19T09:22:27;23.70;58.20
37868;DHT22;24011;48.880;9.190;2022-08-19T09:25:25;23.70;58.20
37868;DHT22;24011;48.880;9.190;2022-08-19T09:28:15;23.70;58.20
37868;DHT22;24011;48.880;9.190;2022-08-19T09:31:07;23.70;58.20
37868;DHT22;24011;48.880;9.190;2022-08-19T09:33:44;23.70;58.40
37868;DHT22;24011;48.880;9.190;2022-08-19T09:36:26;23.70;58.30
37868;DHT22;24011;48.880;9.190;2022-08-19T09:39:31;23.70;58.40
37868;DHT22;24011;48.880;9.190;2022-08-19T09:42:07;23.70;58.50
37868;DHT22;24011;48.880;9.190;2022-08-19T09:45:09;23.70;58.60
37868;DHT22;24011;48.880;9.190;2022-08-19T09:47:50;23.70;58.60
37868;DHT22;24011;48.880;9.190;2022-08-19T09:50:34;23.70;58.70
37868;DHT22;24011;48.880;9.190;2022-08-19T09:53:28;23.70;58.70
37868;DHT22;24011;48.880;9.190;2022-08-19T09:56:20;23.70;58.60
37868;DHT22;24011;48.880;9.190;2022-08-19T09:59:04;23.70;58.70
37868;DHT22;24011;48.880;9.190;2022-08-19T10:01:46;23.70;58.60
37868;DHT22;24011;48.880;9.190;2022-08-19T10:04:40;23.70;58.80
37868;DHT22;24011;48.880;9.190;2022-08-19T10:07:35;23.80;58.80
37868;DHT22;24011;48.880;9.190;2022-08-19T10:10:16;23.70;58.70
37868;DHT22;24011;48.880;9.190;2022-08-19T10:13:02;23.70;58.80
37868;DHT22;24011;48.880;9.190;2022-08-19T10:15:43;23.70;58.70
37868;DHT22;24011;48.880;9.190;2022-08-19T10:18:37;23.80;58.80
37868;DHT22;24011;48.880;9.190;2022-08-19T10:21:30;23.80;58.90
37868;DHT22;24011;48.880;9.190;2022-08-19T10:24:24;23.80;58.80
37868;DHT22;24011;48.880;9.190;2022-08-19T10:27:12;23.80;58.90
37868;DHT22;24011;48.880;9.190;2022-08-19T10:30:10;23.80;58.90
37868;DHT22;24011;48.880;9.190;2022-08-19T10:32:55;23.80;58.80
37868;DHT22;24011;48.880;9.190;2022-08-19T10:35:48;23.80;58.90
37868;DHT22;24011;48.880;9.190;2022-08-19T10:38:37;23.80;58.90
37868;DHT22;24011;48.880;9.190;2022-08-19T10:41:32;23.80;58.90
37868;DHT22;24011;48.880;9.190;2022-08-19T10:44:18;23.80;58.90
37868;DHT22;24011;48.880;9.190;2022-08-19T10:47:11;23.80;58.80
37868;DHT22;24011;48.880;9.190;2022-08-19T10:49:58;23.80;58.80
37868;DHT22;24011;48.880;9.190;2022-08-19T10:53:02;23.70;58.70
37868;DHT22;24011;48.880;9.190;2022-08-19T10:55:48;23.80;58.70
37868;DHT22;24011;48.880;9.190;2022-08-19T10:58:48;23.80;58.70
37868;DHT22;24011;48.880;9.190;2022-08-19T11:01:24;23.80;58.70
37868;DHT22;24011;48.880;9.190;2022-08-19T11:04:13;23.80;58.60
37868;DHT22;24011;48.880;9.190;2022-08-19T11:07:04;23.80;58.60
37868;DHT22;24011;48.880;9.190;2022-08-19T11:10:00;23.70;58.50
37868;DHT22;24011;48.880;9.190;2022-08-19T11:12:50;23.70;58.50
37868;DHT22;24011;48.880;9.190;2022-08-19T11:15:36;23.80;58.50
37868;DHT22;24011;48.880;9.190;2022-08-19T11:18:20;23.80;58.50
37868;DHT22;24011;48.880;9.190;2022-08-19T11:21:10;23.80;58.40
37868;DHT22;24011;48.880;9.190;2022-08-19T11:23:45;23.80;58.40
37868;DHT22;24011;48.880;9.190;2022-08-19T11:26:28;23.80;58.30
37868;DHT22;24011;48.880;9.190;2022-08-19T11:29:02;23.80;58.20
37868;DHT22;24011;48.880;9.190;2022-08-19T11:31:50;23.80;58.20
37868;DHT22;24011;48.880;9.190;2022-08-19T11:34:42;23.80;58.20
37868;DHT22;24011;48.880;9.190;2022-08-19T11:37:41;23.80;58.20
37868;DHT22;24011;48.880;9.190;2022-08-19T11:40:35;23.80;58.20
37868;DHT22;24011;48.880;9.190;2022-08-19T11:43:35;23.80;58.10
37868;DHT22;24011;48.880;9.190;2022-08-19T11:46:35;23.80;58.00
37868;DHT22;24011;48.880;9.190;2022-08-19T11:49:47;23.80;58.10
37868;DHT22;24011;48.880;9.190;2022-08-19T11:52:47;23.80;58.00
37868;DHT22;24011;48.880;9.190;2022-08-19T11:55:41;23.80;57.90
37868;DHT22;24011;48.880;9.190;2022-08-19T11:58:35;23.80;57.90
37868;DHT22;24011;48.880;9.190;2022-08-19T12:01:26;23.80;57.90
37868;DHT22;24011;48.880;9.190;2022-08-19T12:04:26;23.80;57.90
37868;DHT22;24011;48.880;9.190;2022-08-19T12:07:17;23.80;57.90
37868;DHT22;24011;48.880;9.190;2022-08-19T12:10:26;23.80;57.90
37868;DHT22;24011;48.880;9.190;2022-08-19T12:13:23;23.80;57.80
37868;DHT22;24011;48.880;9.190;2022-08-19T12:16:21;23.80;57.80
37868;DHT22;24011;48.880;9.190;2022-08-19T12:19:07;23.80;57.70
37868;DHT22;24011;48.880;9.190;2022-08-19T12:21:59;23.80;57.70
37868;DHT22;24011;48.880;9.190;2022-08-19T12:24:53;23.80;57.70
37868;DHT22;24011;48.880;9.190;2022-08-19T12:27:56;23.80;57.60
37868;DHT22;24011;48.880;9.190;2022-08-19T12:30:55;23.80;57.50
37868;DHT22;24011;48.880;9.190;2022-08-19T12:33:29;23.80;57.40
37868;DHT22;24011;48.880;9.190;2022-08-19T12:36:32;23.80;57.40
37868;DHT22;24011;48.880;9.190;2022-08-19T12:39:23;23.80;57.30
37868;DHT22;24011;48.880;9.190;2022-08-19T12:42:15;23.80;57.30
37868;DHT22;24011;48.880;9.190;2022-08-19T12:45:17;23.80;57.20
37868;DHT22;24011;48.880;9.190;2022-08-19T12:48:15;23.80;57.10
37868;DHT22;24011;48.880;9.190;2022-08-19T12:51:15;23.80;56.90
37868;DHT22;24011;48.880;9.190;2022-08-19T12:54:07;23.80;56.80
37868;DHT22;24011;48.880;9.190;2022-08-19T12:56:51;23.80;56.70
37868;DHT22;24011;48.880;9.190;2022-08-19T12:59:52;23.80;56.60
37868;DHT22;24011;48.880;9.190;2022-08-19T13:02:42;23.80;56.60
37868;DHT22;24011;48.880;9.190;2022-08-19T13:05:42;23.80;56.60
37868;DHT22;24011;48.880;9.190;2022-08-19T13:08:30;23.80;56.60
37868;DHT22;24011;48.880;9.190;2022-08-19T13:11:22;23.80;56.50
37868;DHT22;24011;48.880;9.190;2022-08-19T13:14:22;23.80;56.50
37868;DHT22;24011;48.880;9.190;2022-08-19T13:17:29;23.80;56.50
37868;DHT22;24011;48.880;9.190;2022-08-19T13:20:24;23.80;56.40
37868;DHT22;24011;48.880;9.190;2022-08-19T13:23:30;23.80;56.40
37868;DHT22;24011;48.880;9.190;2022-08-19T13:26:24;23.80;56.30
37868;DHT22;24011;48.880;9.190;2022-08-19T13:29:42;23.80;56.30
37868;DHT22;24011;48.880;9.190;2022-08-19T13:32:48;23.80;56.20
37868;DHT22;24011;48.880;9.190;2022-08-19T13:36:06;23.80;56.10
37868;DHT22;24011;48.880;9.190;2022-08-19T13:39:06;23.80;56.10
37868;DHT22;24011;48.880;9.190;2022-08-19T13:42:42;23.80;56.20
37868;DHT22;24011;48.880;9.190;2022-08-19T13:46:12;23.80;56.10
37868;DHT22;24011;48.880;9.190;2022-08-19T13:49:24;23.80;56.60
37868;DHT22;24011;48.880;9.190;2022-08-19T13:53:24;23.80;56.90
37868;DHT22;24011;48.880;9.190;2022-08-19T13:56:48;23.80;57.40
37868;DHT22;24011;48.880;9.190;2022-08-19T13:59:36;23.80;57.70
37868;DHT22;24011;48.880;9.190;2022-08-19T14:02:50;23.80;57.90
37868;DHT22;24011;48.880;9.190;2022-08-19T14:05:51;23.80;58.70
37868;DHT22;24011;48.880;9.190;2022-08-19T14:09:06;23.80;58.40
37868;DHT22;24011;48.880;9.190;2022-08-19T14:12:25;23.80;58.60
37868;DHT22;24011;48.880;9.190;2022-08-19T14:15:43;23.80;59.00
37868;DHT22;24011;48.880;9.190;2022-08-19T14:19:05;23.80;59.40
37868;DHT22;24011;48.880;9.190;2022-08-19T14:22:25;23.90;59.60
37868;DHT22;24011;48.880;9.190;2022-08-19T14:26:13;23.90;60.00
37868;DHT22;24011;48.880;9.190;2022-08-19T14:29:31;23.90;61.20
37868;DHT22;24011;48.880;9.190;2022-08-19T14:32:25;23.90;61.20
37868;DHT22;24011;48.880;9.190;2022-08-19T14:36:00;23.90;61.50
37868;DHT22;24011;48.880;9.190;2022-08-19T14:39:03;23.90;61.60
37868;DHT22;24011;48.880;9.190;2022-08-19T14:49:19;23.90;62.80
37868;DHT22;24011;48.880;9.190;2022-08-19T14:53:02;23.90;63.20
37868;DHT22;24011;48.880;9.190;2022-08-19T14:56:31;23.90;63.40
37868;DHT22;24011;48.880;9.190;2022-08-19T14:59:55;23.90;63.90
37868;DHT22;24011;48.880;9.190;2022-08-19T15:03:19;23.90;64.10
37868;DHT22;24011;48.880;9.190;2022-08-19T15:27:56;23.90;65.40
37868;DHT22;24011;48.880;9.190;2022-08-19T15:31:25;23.90;65.40
37868;DHT22;24011;48.880;9.190;2022-08-19T15:35:13;23.90;65.40
37868;DHT22;24011;48.880;9.190;2022-08-19T15:38:49;23.90;65.50
37868;DHT22;24011;48.880;9.190;2022-08-19T15:42:07;23.90;65.50
37868;DHT22;24011;48.880;9.190;2022-08-19T15:45:20;23.90;65.60
37868;DHT22;24011;48.880;9.190;2022-08-19T15:48:25;23.90;65.50
37868;DHT22;24011;48.880;9.190;2022-08-19T15:51:49;23.90;65.60
37868;DHT22;24011;48.880;9.190;2022-08-19T15:54:44;23.90;65.60
37868;DHT22;24011;48.880;9.190;2022-08-19T15:58:25;23.90;65.60
37868;DHT22;24011;48.880;9.190;2022-08-19T16:01:56;23.90;65.70
37868;DHT22;24011;48.880;9.190;2022-08-19T16:05:20;23.90;65.60
37868;DHT22;24011;48.880;9.190;2022-08-19T16:08:38;23.90;65.80
37868;DHT22;24011;48.880;9.190;2022-08-19T16:11:33;23.90;65.60
37868;DHT22;24011;48.880;9.190;2022-08-19T16:14:19;23.90;65.60
37868;DHT22;24011;48.880;9.190;2022-08-19T16:17:44;23.90;65.60
37868;DHT22;24011;48.880;9.190;2022-08-19T16:20:56;23.90;65.60
37868;DHT22;24011;48.880;9.190;2022-08-19T16:24:20;23.80;65.40
37868;DHT22;24011;48.880;9.190;2022-08-19T16:27:38;23.90;65.50
37868;DHT22;24011;48.880;9.190;2022-08-19T16:30:44;23.90;65.40
37868;DHT22;24011;48.880;9.190;2022-08-19T16:34:02;23.90;65.30
37868;DHT22;24011;48.880;9.190;2022-08-19T16:37:20;23.90;65.10
37868;DHT22;24011;48.880;9.190;2022-08-19T16:40:38;23.90;65.00
37868;DHT22;24011;48.880;9.190;2022-08-19T16:44:09;23.90;65.00
37868;DHT22;24011;48.880;9.190;2022-08-19T16:47:14;23.90;64.90
37868;DHT22;24011;48.880;9.190;2022-08-19T16:50:50;23.90;65.00
37868;DHT22;24011;48.880;9.190;2022-08-19T16:54:08;23.80;65.00
37868;DHT22;24011;48.880;9.190;2022-08-19T16:57:20;23.90;65.10
37868;DHT22;24011;48.880;9.190;2022-08-19T17:00:48;23.90;65.00
37868;DHT22;24011;48.880;9.190;2022-08-19T17:03:59;23.80;64.80
37868;DHT22;24011;48.880;9.190;2022-08-19T17:07:20;23.90;64.90
37868;DHT22;24011;48.880;9.190;2022-08-19T17:10:51;23.90;64.90
37868;DHT22;24011;48.880;9.190;2022-08-19T17:13:56;23.80;64.90
37868;DHT22;24011;48.880;9.190;2022-08-19T17:17:14;23.80;64.90
37868;DHT22;24011;48.880;9.190;2022-08-19T17:20:32;23.80;64.90
37868;DHT22;24011;48.880;9.190;2022-08-19T17:34:14;23.80;64.70
37868;DHT22;24011;48.880;9.190;2022-08-19T17:37:38;23.80;64.80
37868;DHT22;24011;48.880;9.190;2022-08-19T17:41:08;23.80;64.70
37868;DHT22;24011;48.880;9.190;2022-08-19T17:44:32;23.80;64.60
37868;DHT22;24011;48.880;9.190;2022-08-19T17:47:50;23.80;64.80
37868;DHT22;24011;48.880;9.190;2022-08-19T17:51:38;23.80;64.80
37868;DHT22;24011;48.880;9.190;2022-08-19T17:54:50;23.80;64.90
37868;DHT22;24011;48.880;9.190;2022-08-19T17:58:14;23.80;64.80
37868;DHT22;24011;48.880;9.190;2022-08-19T18:01:27;23.80;64.80
37868;DHT22;24011;48.880;9.190;2022-08-19T18:05:30;23.80;64.90
37868;DHT22;24011;48.880;9.190;2022-08-19T18:08:51;23.80;64.60
37868;DHT22;24011;48.880;9.190;2022-08-19T18:12:00;23.80;64.30
37868;DHT22;24011;48.880;9.190;2022-08-19T18:15:17;23.90;64.10
37868;DHT22;24011;48.880;9.190;2022-08-19T18:18:39;23.90;63.90
37868;DHT22;24011;48.880;9.190;2022-08-19T18:21:39;23.90;63.70
37868;DHT22;24011;48.880;9.190;2022-08-19T18:25:16;23.90;63.60
37868;DHT22;24011;48.880;9.190;2022-08-19T18:28:39;24.00;63.40
37868;DHT22;24011;48.880;9.190;2022-08-19T18:31:51;24.00;63.30
37868;DHT22;24011;48.880;9.190;2022-08-19T18:34:45;24.00;63.10
37868;DHT22;24011;48.880;9.190;2022-08-19T18:37:39;24.00;63.00
37868;DHT22;24011;48.880;9.190;2022-08-19T18:40:42;24.00;62.90
37868;DHT22;24011;48.880;9.190;2022-08-19T18:43:48;24.00;62.70
37868;DHT22;24011;48.880;9.190;2022-08-19T18:46:54;24.10;62.60
37868;DHT22;24011;48.880;9.190;2022-08-19T18:50:12;24.10;62.50
37868;DHT22;24011;48.880;9.190;2022-08-19T18:53:09;24.10;62.40
37868;DHT22;24011;48.880;9.190;2022-08-19T18:56:17;24.10;62.30
37868;DHT22;24011;48.880;9.190;2022-08-19T18:59:09;24.10;62.10
37868;DHT22;24011;48.880;9.190;2022-08-19T19:02:15;24.10;62.10
37868;DHT22;24011;48.880;9.190;2022-08-19T19:05:15;24.10;62.00
37868;DHT22;24011;48.880;9.190;2022-08-19T19:08:24;24.10;61.90
37868;DHT22;24011;48.880;9.190;2022-08-19T19:11:28;24.20;61.80
37868;DHT22;24011;48.880;9.190;2022-08-19T19:14:34;24.10;61.70
37868;DHT22;24011;48.880;9.190;2022-08-19T19:17:39;24.20;61.60
37868;DHT22;24011;48.880;9.190;2022-08-19T19:20:42;24.20;61.50
37868;DHT22;24011;48.880;9.190;2022-08-19T19:23:40;24.20;61.50
37868;DHT22;24011;48.880;9.190;2022-08-19T19:26:45;24.20;61.30
37868;DHT22;24011;48.880;9.190;2022-08-19T19:29:40;24.20;61.30
37868;DHT22;24011;48.880;9.190;2022-08-19T19:32:46;24.20;61.30
37868;DHT22;24011;48.880;9.190;2022-08-19T19:35:40;24.20;61.10
37868;DHT22;24011;48.880;9.190;2022-08-19T19:38:24;24.20;61.00
37868;DHT22;24011;48.880;9.190;2022-08-19T19:41:19;24.20;61.00
37868;DHT22;24011;48.880;9.190;2022-08-19T19:48:37;24.20;60.90
37868;DHT22;24011;48.880;9.190;2022-08-19T19:52:07;24.20;60.80
37868;DHT22;24011;48.880;9.190;2022-08-19T19:55:31;24.30;60.70
37868;DHT22;24011;48.880;9.190;2022-08-19T19:58:55;24.30;60.70
37868;DHT22;24011;48.880;9.190;2022-08-19T20:01:37;24.30;60.60
37868;DHT22;24011;48.880;9.190;2022-08-19T20:12:07;24.30;60.30
37868;DHT22;24011;48.880;9.190;2022-08-19T20:15:25;24.30;60.30
37868;DHT22;24011;48.880;9.190;2022-08-19T20:18:37;24.30;60.20
37868;DHT22;24011;48.880;9.190;2022-08-19T20:21:55;24.30;60.20
37868;DHT22;24011;48.880;9.190;2022-08-19T20:25:21;24.30;60.10
37868;DHT22;24011;48.880;9.190;2022-08-19T20:35:49;24.30;59.90
37868;DHT22;24011;48.880;9.190;2022-08-19T20:39:43;24.30;59.80
37868;DHT22;24011;48.880;9.190;2022-08-19T20:42:44;24.30;59.80